Time;durP1;ratioP1;P1;durP2;ratioP2;P2;SDS_P1;SDS_P2;PMS_P1;PMS_P2;Temp;Humidity;BMP_temperature;BMP_pressure;BME280_temperature;BME280_humidity;BME280_pressure;Samples;Min_cycle;Max_cycle;Signal;HPM_P1;HPM_P2
2023/10/30 00:02:05;;;;;;;3.63;0.80;;;;;;;;;;5058980;28;20024;-91
2023/10/30 00:04:30;;;;;;;5.50;1.13;;;;;;;;;;5071896;28;20048;-90
2023/10/30 00:06:55;;;;;;;13.02;1.33;;;;;;;;;;5058643;28;20021;-90
2023/10/30 00:09:20;;;;;;;5.20;1.15;;;;;;;;;;5055849;28;20092;-90
2023/10/30 00:11:47;;;;;;;10.85;1.58;;;;;;;;;;5066614;28;20025;-91
2023/10/30 00:14:13;;;;;;;9.68;0.93;;;;;;;;;;5059044;28;20426;-90
2023/10/30 00:16:38;;;;;;;6.72;0.98;;;;;;;;;;5055962;28;20098;-91
2023/10/30 00:19:04;;;;;;;11.65;1.40;;;;;;;;;;5070415;28;20476;-90
2023/10/30 00:21:30;;;;;;;9.63;0.95;;;;;;;;;;5056261;28;20025;-90
2023/10/30 00:23:55;;;;;;;7.38;1.00;;;;;;;;;;5053763;28;20039;-90
2023/10/30 00:26:20;;;;;;;11.60;1.25;;;;;;;;;;5052885;28;20029;-90
2023/10/30 00:28:46;;;;;;;8.15;1.00;;;;;;;;;;5055196;28;20388;-89
2023/10/30 00:31:11;;;;;;;6.35;1.35;;;;;;;;;;5057459;28;20032;-90
2023/10/30 00:33:36;;;;;;;10.10;1.13;;;;;;;;;;5055625;28;20032;-89
2023/10/30 00:36:01;;;;;;;4.30;0.90;;;;;;;;;;5057978;28;20013;-91
2023/10/30 00:38:27;;;;;;;8.95;1.60;;;;;;;;;;5057559;28;20013;-90
2023/10/30 00:40:52;;;;;;;12.70;1.48;;;;;;;;;;5057085;28;20104;-91
2023/10/30 00:43:17;;;;;;;8.95;0.98;;;;;;;;;;5071781;28;20525;-90
2023/10/30 00:45:42;;;;;;;6.40;1.02;;;;;;;;;;5059007;28;20021;-90
2023/10/30 00:48:08;;;;;;;7.88;1.20;;;;;;;;;;5056807;28;20013;-89
2023/10/30 00:50:33;;;;;;;7.25;1.17;;;;;;;;;;5054986;28;20025;-89
2023/10/30 00:52:58;;;;;;;12.18;0.93;;;;;;;;;;5055203;28;20485;-90
2023/10/30 00:55:24;;;;;;;13.10;1.20;;;;;;;;;;5058093;28;20036;-89
2023/10/30 00:57:49;;;;;;;10.40;0.82;;;;;;;;;;5054811;28;20063;-89
2023/10/30 01:00:18;;;;;;;15.57;1.33;;;;;;;;;;5060247;28;20017;-91
2023/10/30 01:02:44;;;;;;;6.15;0.93;;;;;;;;;;5064101;28;20070;-90
2023/10/30 01:05:09;;;;;;;7.97;1.00;;;;;;;;;;5062377;28;20039;-89
2023/10/30 01:07:35;;;;;;;5.80;0.82;;;;;;;;;;5061253;28;20112;-91
2023/10/30 01:10:00;;;;;;;8.38;0.90;;;;;;;;;;5060451;28;20028;-90
2023/10/30 01:12:25;;;;;;;5.43;0.90;;;;;;;;;;5053966;28;20060;-90
2023/10/30 01:14:50;;;;;;;9.85;1.05;;;;;;;;;;5054545;28;20024;-90
2023/10/30 01:17:16;;;;;;;8.93;1.25;;;;;;;;;;5056781;28;20021;-89
2023/10/30 01:19:43;;;;;;;9.73;0.93;;;;;;;;;;5047970;28;20017;-90
2023/10/30 01:22:08;;;;;;;9.45;1.13;;;;;;;;;;5056727;28;20025;-89
2023/10/30 01:24:36;;;;;;;4.25;1.10;;;;;;;;;;5056474;28;20025;-89
2023/10/30 01:27:04;;;;;;;14.48;1.10;;;;;;;;;;5061699;28;20028;-90
2023/10/30 01:29:29;;;;;;;4.05;0.70;;;;;;;;;;5059293;28;20017;-91
2023/10/30 01:31:57;;;;;;;2.45;0.65;;;;;;;;;;5061145;28;20040;-90
2023/10/30 01:34:22;;;;;;;6.85;1.65;;;;;;;;;;5073216;28;20028;-89
2023/10/30 01:36:47;;;;;;;8.13;0.90;;;;;;;;;;5060466;28;20024;-91
2023/10/30 01:39:12;;;;;;;6.75;0.93;;;;;;;;;;5060300;28;20021;-90
2023/10/30 01:41:39;;;;;;;1.88;0.68;;;;;;;;;;5066694;28;20031;-91
2023/10/30 01:44:05;;;;;;;5.63;0.90;;;;;;;;;;5074038;28;20032;-90
2023/10/30 01:46:30;;;;;;;13.20;1.17;;;;;;;;;;5063242;28;20024;-90
2023/10/30 01:48:55;;;;;;;3.55;0.90;;;;;;;;;;5062342;28;20222;-91
2023/10/30 01:51:21;;;;;;;10.52;1.00;;;;;;;;;;5063864;28;20101;-90
2023/10/30 01:53:47;;;;;;;10.60;1.00;;;;;;;;;;5063295;28;20052;-89
2023/10/30 01:56:13;;;;;;;8.13;1.33;;;;;;;;;;5077315;28;20084;-90
2023/10/30 01:58:39;;;;;;;11.07;0.98;;;;;;;;;;5070342;28;20021;-91
2023/10/30 02:01:04;;;;;;;7.65;1.00;;;;;;;;;;5066491;28;20119;-91
2023/10/30 02:03:30;;;;;;;5.80;0.88;;;;;;;;;;5062176;28;20074;-90
2023/10/30 02:05:55;;;;;;;6.30;1.08;;;;;;;;;;5066990;28;20029;-92
2023/10/30 02:08:20;;;;;;;5.32;1.00;;;;;;;;;;5065568;28;20097;-92
2023/10/30 02:10:46;;;;;;;3.53;0.65;;;;;;;;;;5066825;28;20436;-90
2023/10/30 02:13:11;;;;;;;7.68;1.20;;;;;;;;;;5065295;28;20090;-90
2023/10/30 02:15:37;;;;;;;11.25;1.02;;;;;;;;;;5066757;28;20025;-91
2023/10/30 02:18:02;;;;;;;9.50;0.98;;;;;;;;;;5069167;28;20125;-91
2023/10/30 02:20:28;;;;;;;6.57;0.90;;;;;;;;;;5069035;28;20067;-92
2023/10/30 02:22:53;;;;;;;11.65;1.10;;;;;;;;;;5055883;28;20048;-91
2023/10/30 02:25:18;;;;;;;5.30;1.33;;;;;;;;;;5072621;28;20040;-91
2023/10/30 02:27:44;;;;;;;5.30;0.88;;;;;;;;;;5056067;28;20020;-91
2023/10/30 02:30:11;;;;;;;4.97;1.25;;;;;;;;;;5068443;28;20025;-91
2023/10/30 02:32:37;;;;;;;9.98;1.25;;;;;;;;;;5073036;28;20088;-90
2023/10/30 02:35:03;;;;;;;6.70;1.08;;;;;;;;;;5064028;28;20059;-89
2023/10/30 02:37:28;;;;;;;10.45;1.30;;;;;;;;;;5063847;28;20039;-90
2023/10/30 02:55:06;;;;;;;4.32;0.80;;;;;;;;;;5067584;28;20017;-91
2023/10/30 02:57:31;;;;;;;8.60;0.90;;;;;;;;;;5065649;28;20017;-91
2023/10/30 02:59:56;;;;;;;4.90;0.70;;;;;;;;;;5069153;28;20017;-92
2023/10/30 03:02:21;;;;;;;7.97;0.75;;;;;;;;;;5076934;28;20023;-90
2023/10/30 03:04:46;;;;;;;5.43;0.90;;;;;;;;;;5073379;28;20075;-91
2023/10/30 03:07:15;;;;;;;5.82;0.93;;;;;;;;;;5073853;28;20013;-90
2023/10/30 03:09:40;;;;;;;4.53;1.15;;;;;;;;;;5087443;28;20020;-90
2023/10/30 03:12:05;;;;;;;9.75;1.10;;;;;;;;;;5057983;28;20548;-90
2023/10/30 03:14:31;;;;;;;7.75;1.00;;;;;;;;;;5066438;28;20016;-91
2023/10/30 03:16:56;;;;;;;11.30;1.00;;;;;;;;;;5057246;28;20029;-89
2023/10/30 03:19:21;;;;;;;6.20;0.77;;;;;;;;;;5047081;28;20013;-91
2023/10/30 03:21:46;;;;;;;7.55;0.95;;;;;;;;;;5060195;28;20047;-91
2023/10/30 03:24:12;;;;;;;16.17;1.08;;;;;;;;;;5059489;28;20017;-90
2023/10/30 03:26:37;;;;;;;6.05;1.02;;;;;;;;;;5058612;28;20429;-89
2023/10/30 03:29:02;;;;;;;9.43;0.80;;;;;;;;;;5058135;28;20020;-90
2023/10/30 03:31:27;;;;;;;9.00;0.95;;;;;;;;;;5058268;28;20020;-91
2023/10/30 03:33:53;;;;;;;4.82;0.70;;;;;;;;;;5069761;28;20020;-90
2023/10/30 03:36:22;;;;;;;6.85;0.80;;;;;;;;;;5061398;28;20044;-90
2023/10/30 03:38:48;;;;;;;3.85;0.63;;;;;;;;;;5059853;28;20021;-90
2023/10/30 03:41:13;;;;;;;11.50;1.30;;;;;;;;;;5057809;28;20112;-90
2023/10/30 03:43:38;;;;;;;5.78;0.85;;;;;;;;;;5058254;28;20020;-89
2023/10/30 03:46:04;;;;;;;5.45;0.77;;;;;;;;;;5058107;28;20035;-89
2023/10/30 03:48:30;;;;;;;8.43;0.95;;;;;;;;;;5059325;28;20419;-89
2023/10/30 03:50:55;;;;;;;17.15;1.00;;;;;;;;;;5062233;28;20021;-90
2023/10/30 03:53:20;;;;;;;9.55;1.15;;;;;;;;;;5065613;28;20032;-90
2023/10/30 03:55:45;;;;;;;7.38;0.73;;;;;;;;;;5077442;28;20021;-91
2023/10/30 03:58:12;;;;;;;5.22;0.63;;;;;;;;;;5063801;28;20016;-91
2023/10/30 04:00:37;;;;;;;6.65;1.10;;;;;;;;;;5076506;28;20013;-90
2023/10/30 04:03:02;;;;;;;5.60;0.80;;;;;;;;;;5062152;28;20032;-91
2023/10/30 04:05:27;;;;;;;10.45;1.10;;;;;;;;;;5062444;28;20028;-90
2023/10/30 04:07:53;;;;;;;8.93;1.33;;;;;;;;;;5063121;28;20552;-90
2023/10/30 04:10:18;;;;;;;9.65;1.30;;;;;;;;;;5062968;28;20461;-91
2023/10/30 04:12:45;;;;;;;9.50;1.25;;;;;;;;;;5062774;28;20039;-90
2023/10/30 04:15:10;;;;;;;5.47;0.90;;;;;;;;;;5061069;28;20025;-90
2023/10/30 04:17:35;;;;;;;8.63;0.63;;;;;;;;;;5076843;28;20032;-90
2023/10/30 04:20:00;;;;;;;8.00;0.80;;;;;;;;;;5069684;28;20013;-90
2023/10/30 04:22:26;;;;;;;3.28;0.80;;;;;;;;;;5060680;28;20024;-91
2023/10/30 04:24:51;;;;;;;6.38;1.00;;;;;;;;;;5071241;28;20330;-91
2023/10/30 04:27:17;;;;;;;10.55;1.27;;;;;;;;;;5069514;28;20009;-90
2023/10/30 04:29:42;;;;;;;5.78;0.80;;;;;;;;;;5059289;28;20021;-91
2023/10/30 04:32:07;;;;;;;7.13;0.77;;;;;;;;;;5059278;28;20020;-89
2023/10/30 04:34:32;;;;;;;11.85;1.50;;;;;;;;;;5060210;28;20026;-90
2023/10/30 04:36:58;;;;;;;6.03;0.90;;;;;;;;;;5050519;28;20029;-90
2023/10/30 04:39:24;;;;;;;6.22;1.00;;;;;;;;;;5062521;28;20436;-90
2023/10/30 04:41:49;;;;;;;7.03;1.08;;;;;;;;;;5061390;28;20037;-91
2023/10/30 04:44:14;;;;;;;9.90;1.25;;;;;;;;;;5061299;28;20028;-90
2023/10/30 04:46:40;;;;;;;5.03;1.33;;;;;;;;;;5065650;28;20039;-91
2023/10/30 04:49:05;;;;;;;6.57;0.85;;;;;;;;;;5054629;28;20124;-90
2023/10/30 04:51:30;;;;;;;4.25;0.82;;;;;;;;;;5076797;28;20137;-90
2023/10/30 04:53:55;;;;;;;2.95;0.70;;;;;;;;;;5062949;28;20112;-90
2023/10/30 04:56:21;;;;;;;11.35;1.13;;;;;;;;;;5063095;28;20070;-90
2023/10/30 04:58:46;;;;;;;9.00;0.98;;;;;;;;;;5064033;28;20444;-90
2023/10/30 05:01:12;;;;;;;2.03;0.70;;;;;;;;;;5061843;28;20032;-91
2023/10/30 05:03:38;;;;;;;9.18;0.88;;;;;;;;;;5058911;28;20025;-91
2023/10/30 05:06:04;;;;;;;7.78;1.65;;;;;;;;;;5052500;28;20040;-90
2023/10/30 05:08:29;;;;;;;7.55;0.85;;;;;;;;;;5046352;28;20041;-90
2023/10/30 05:10:55;;;;;;;11.80;1.20;;;;;;;;;;5058655;28;20104;-90
2023/10/30 05:13:20;;;;;;;6.50;1.08;;;;;;;;;;5060594;28;20036;-91
2023/10/30 05:15:46;;;;;;;9.52;1.05;;;;;;;;;;5060392;28;20440;-90
2023/10/30 05:18:11;;;;;;;6.60;1.00;;;;;;;;;;5064260;28;20044;-90
2023/10/30 05:20:37;;;;;;;7.28;1.10;;;;;;;;;;5063373;28;20024;-89
2023/10/30 05:23:02;;;;;;;3.90;0.70;;;;;;;;;;5062123;28;20179;-91
2023/10/30 05:25:27;;;;;;;6.50;0.88;;;;;;;;;;5062884;28;20148;-90
2023/10/30 05:27:52;;;;;;;12.38;1.33;;;;;;;;;;5070911;28;20028;-89
2023/10/30 05:30:18;;;;;;;7.85;1.20;;;;;;;;;;5070121;28;20037;-90
2023/10/30 05:32:43;;;;;;;11.55;0.95;;;;;;;;;;5047868;28;20033;-90
2023/10/30 05:35:08;;;;;;;10.68;1.15;;;;;;;;;;5062327;28;20087;-90
2023/10/30 05:37:33;;;;;;;8.25;1.17;;;;;;;;;;5063621;28;20017;-90
2023/10/30 05:40:00;;;;;;;4.65;0.77;;;;;;;;;;5061693;28;20021;-90
2023/10/30 05:42:25;;;;;;;6.80;1.13;;;;;;;;;;5060614;28;20017;-90
2023/10/30 05:44:51;;;;;;;9.13;0.80;;;;;;;;;;5061113;28;20032;-90
2023/10/30 05:47:16;;;;;;;6.30;0.90;;;;;;;;;;5061814;28;20023;-90
2023/10/30 05:49:41;;;;;;;3.15;0.82;;;;;;;;;;5076509;28;20020;-90
2023/10/30 05:52:08;;;;;;;6.88;0.90;;;;;;;;;;5060805;28;20046;-90
2023/10/30 05:54:33;;;;;;;10.80;1.20;;;;;;;;;;5060637;28;20449;-90
2023/10/30 05:56:58;;;;;;;4.47;0.82;;;;;;;;;;5062984;28;20163;-89
2023/10/30 05:59:23;;;;;;;8.20;0.90;;;;;;;;;;5062286;28;20112;-90
2023/10/30 06:01:49;;;;;;;5.05;0.82;;;;;;;;;;5060367;28;20464;-90
2023/10/30 06:04:14;;;;;;;5.35;0.90;;;;;;;;;;5057625;28;20051;-91
2023/10/30 06:06:39;;;;;;;9.57;1.00;;;;;;;;;;5058776;28;20021;-91
2023/10/30 06:09:04;;;;;;;4.80;0.90;;;;;;;;;;5058984;28;20035;-90
2023/10/30 06:11:30;;;;;;;8.50;1.15;;;;;;;;;;5063716;28;20480;-91
2023/10/30 06:13:55;;;;;;;7.68;0.90;;;;;;;;;;5072809;28;20029;-90
2023/10/30 06:16:20;;;;;;;7.53;0.90;;;;;;;;;;5073261;28;20028;-90
2023/10/30 06:18:45;;;;;;;11.23;1.08;;;;;;;;;;5058957;28;20021;-90
2023/10/30 06:21:17;;;;;;;7.68;1.27;;;;;;;;;;5073355;28;20127;-89
2023/10/30 06:23:43;;;;;;;5.15;0.98;;;;;;;;;;5075478;28;20020;-90
2023/10/30 06:26:12;;;;;;;5.97;0.70;;;;;;;;;;5066522;28;20021;-90
2023/10/30 06:28:38;;;;;;;5.47;0.98;;;;;;;;;;5047010;28;20116;-90
2023/10/30 06:31:04;;;;;;;4.85;0.60;;;;;;;;;;5059235;28;20128;-89
2023/10/30 06:33:31;;;;;;;9.48;1.00;;;;;;;;;;5048988;28;20082;-90
2023/10/30 06:35:58;;;;;;;8.77;0.98;;;;;;;;;;5053788;28;20112;-90
2023/10/30 06:38:24;;;;;;;11.45;0.90;;;;;;;;;;5059240;28;20021;-91
2023/10/30 06:40:49;;;;;;;8.25;0.77;;;;;;;;;;5059854;28;20403;-90
2023/10/30 06:43:14;;;;;;;8.27;1.17;;;;;;;;;;5060517;28;20046;-90
2023/10/30 06:45:39;;;;;;;11.40;1.00;;;;;;;;;;5059034;28;20051;-89
2023/10/30 06:48:04;;;;;;;6.97;0.68;;;;;;;;;;5058274;28;20025;-89
2023/10/30 06:50:30;;;;;;;9.50;1.27;;;;;;;;;;5058399;28;20124;-89
2023/10/30 06:52:55;;;;;;;4.90;1.10;;;;;;;;;;5058693;28;20024;-91
2023/10/30 06:55:20;;;;;;;4.57;0.70;;;;;;;;;;5059716;28;20073;-91
2023/10/30 06:57:45;;;;;;;13.02;1.20;;;;;;;;;;5058074;28;20426;-91
2023/10/30 07:00:11;;;;;;;4.95;0.90;;;;;;;;;;5064125;28;20039;-91
2023/10/30 07:02:36;;;;;;;6.03;0.98;;;;;;;;;;5063823;28;20028;-92
2023/10/30 07:05:02;;;;;;;11.50;1.50;;;;;;;;;;5065924;28;20029;-90
2023/10/30 07:07:27;;;;;;;11.10;1.20;;;;;;;;;;5067005;28;20021;-93
2023/10/30 07:09:53;;;;;;;10.20;0.85;;;;;;;;;;5069100;28;20080;-93
2023/10/30 07:12:18;;;;;;;8.27;1.70;;;;;;;;;;5075293;28;20453;-92
2023/10/30 07:14:43;;;;;;;4.05;0.95;;;;;;;;;;5074101;28;20001;-93
2023/10/30 07:17:08;;;;;;;12.32;1.23;;;;;;;;;;5074610;28;20028;-95
2023/10/30 07:19:34;;;;;;;7.75;0.90;;;;;;;;;;5073163;28;20021;-93
2023/10/30 07:21:59;;;;;;;7.20;1.00;;;;;;;;;;5073411;28;20053;-94
2023/10/30 07:24:24;;;;;;;5.40;1.13;;;;;;;;;;5075076;28;20017;-92
2023/10/30 07:26:49;;;;;;;3.20;0.68;;;;;;;;;;5072659;28;20096;-92
2023/10/30 07:29:15;;;;;;;7.28;1.05;;;;;;;;;;5070565;28;20021;-90
2023/10/30 07:31:40;;;;;;;6.80;1.10;;;;;;;;;;5070343;28;20017;-92
2023/10/30 07:34:05;;;;;;;5.32;0.80;;;;;;;;;;5070189;28;20491;-91
2023/10/30 07:36:30;;;;;;;5.47;0.90;;;;;;;;;;5051494;28;20048;-91
2023/10/30 07:38:55;;;;;;;8.20;1.70;;;;;;;;;;5069326;28;20035;-91
2023/10/30 07:41:21;;;;;;;7.82;1.15;;;;;;;;;;5070491;28;20158;-91
2023/10/30 07:43:47;;;;;;;8.00;0.82;;;;;;;;;;5070049;28;20089;-90
2023/10/30 07:46:15;;;;;;;7.90;1.08;;;;;;;;;;5065455;28;20074;-91
2023/10/30 07:48:40;;;;;;;11.63;1.08;;;;;;;;;;5053255;28;20115;-91
2023/10/30 07:51:05;;;;;;;6.35;0.95;;;;;;;;;;5053203;28;20057;-90
2023/10/30 07:53:31;;;;;;;13.30;1.40;;;;;;;;;;5052959;28;20017;-91
2023/10/30 07:55:56;;;;;;;7.07;1.20;;;;;;;;;;5053211;28;20056;-90
2023/10/30 07:58:22;;;;;;;4.82;0.77;;;;;;;;;;5054606;28;20012;-91
2023/10/30 08:00:47;;;;;;;5.65;0.77;;;;;;;;;;5053720;28;20032;-89
2023/10/30 08:03:14;;;;;;;4.60;0.82;;;;;;;;;;5052754;28;20013;-90
2023/10/30 08:05:40;;;;;;;7.20;0.82;;;;;;;;;;5053317;28;20142;-90
2023/10/30 08:08:05;;;;;;;4.55;1.00;;;;;;;;;;5054103;28;20021;-91
2023/10/30 08:10:31;;;;;;;5.57;1.00;;;;;;;;;;5052760;28;20032;-90
2023/10/30 08:12:56;;;;;;;9.40;1.25;;;;;;;;;;5052600;28;20124;-90
2023/10/30 08:15:21;;;;;;;6.47;0.98;;;;;;;;;;5038696;28;20028;-91
2023/10/30 08:17:47;;;;;;;8.35;1.05;;;;;;;;;;5064363;28;20095;-91
2023/10/30 08:20:14;;;;;;;3.42;0.80;;;;;;;;;;5064181;28;20102;-90
2023/10/30 08:22:39;;;;;;;7.97;0.90;;;;;;;;;;5057071;28;20384;-91
2023/10/30 08:25:05;;;;;;;9.90;1.20;;;;;;;;;;5059102;28;20032;-92
2023/10/30 08:27:30;;;;;;;4.00;1.08;;;;;;;;;;5057849;28;20024;-91
2023/10/30 08:29:55;;;;;;;9.80;1.13;;;;;;;;;;5056433;28;20021;-92
2023/10/30 08:32:21;;;;;;;8.73;1.00;;;;;;;;;;5069449;28;20021;-91
2023/10/30 08:34:46;;;;;;;7.40;1.10;;;;;;;;;;5056998;28;20440;-91
2023/10/30 08:37:11;;;;;;;7.03;1.10;;;;;;;;;;5055928;28;20021;-92
2023/10/30 08:39:37;;;;;;;8.75;1.30;;;;;;;;;;5056012;28;20538;-90
2023/10/30 08:42:02;;;;;;;4.13;1.10;;;;;;;;;;5056310;28;20032;-90
2023/10/30 08:44:28;;;;;;;15.02;1.73;;;;;;;;;;5055975;28;20479;-91
2023/10/30 08:46:53;;;;;;;4.00;0.68;;;;;;;;;;5061794;28;20415;-91
2023/10/30 08:49:19;;;;;;;4.45;0.95;;;;;;;;;;5069078;28;20041;-91
2023/10/30 08:51:44;;;;;;;13.50;1.48;;;;;;;;;;5061878;28;20028;-89
2023/10/30 08:54:10;;;;;;;5.72;0.95;;;;;;;;;;5054290;28;20060;-91
2023/10/30 08:56:36;;;;;;;11.10;0.95;;;;;;;;;;5058148;28;20025;-92
2023/10/30 08:59:03;;;;;;;4.72;0.90;;;;;;;;;;5061189;28;20112;-91
2023/10/30 09:01:29;;;;;;;5.68;1.40;;;;;;;;;;5059908;28;20082;-90
2023/10/30 09:03:54;;;;;;;3.83;0.95;;;;;;;;;;5057064;28;20112;-93
2023/10/30 09:06:19;;;;;;;5.65;0.75;;;;;;;;;;5091668;28;20060;-92
2023/10/30 09:08:44;;;;;;;9.20;1.10;;;;;;;;;;5057916;28;20025;-91
2023/10/30 09:11:12;;;;;;;4.25;1.13;;;;;;;;;;5056513;28;20017;-92
2023/10/30 09:13:37;;;;;;;7.03;1.00;;;;;;;;;;5057264;28;20094;-92
2023/10/30 09:16:03;;;;;;;4.95;1.30;;;;;;;;;;5056792;28;20025;-90
2023/10/30 09:18:28;;;;;;;11.00;1.38;;;;;;;;;;5056946;28;20109;-91
2023/10/30 09:20:53;;;;;;;7.47;1.20;;;;;;;;;;5058199;28;20017;-92
2023/10/30 09:23:19;;;;;;;8.40;1.60;;;;;;;;;;5058612;28;20021;-91
2023/10/30 09:25:44;;;;;;;7.32;1.00;;;;;;;;;;5058677;28;20021;-92
2023/10/30 09:28:09;;;;;;;8.27;2.28;;;;;;;;;;5058177;28;20029;-93
2023/10/30 09:30:34;;;;;;;5.55;0.90;;;;;;;;;;5058178;28;20159;-92
2023/10/30 09:33:00;;;;;;;2.22;0.80;;;;;;;;;;5062766;28;20420;-91
2023/10/30 09:35:29;;;;;;;4.13;1.10;;;;;;;;;;5068732;28;20112;-93
2023/10/30 09:37:54;;;;;;;5.93;1.00;;;;;;;;;;5058355;28;20044;-92
2023/10/30 09:40:22;;;;;;;4.07;0.73;;;;;;;;;;5055812;28;20116;-92
2023/10/30 09:42:53;;;;;;;4.22;0.90;;;;;;;;;;5054527;28;20041;-93
2023/10/30 09:45:23;;;;;;;11.80;0.60;;;;;;;;;;5062926;28;20041;-91
2023/10/30 09:47:55;;;;;;;9.82;1.30;;;;;;;;;;5058735;28;20362;-92
2023/10/30 09:50:21;;;;;;;4.43;0.95;;;;;;;;;;5055738;28;20480;-92
2023/10/30 09:52:48;;;;;;;6.10;1.00;;;;;;;;;;5056889;28;20021;-91
2023/10/30 09:55:15;;;;;;;11.30;1.13;;;;;;;;;;5056456;28;20357;-91
2023/10/30 09:57:40;;;;;;;3.50;0.98;;;;;;;;;;5056409;28;20025;-91
2023/10/30 10:00:06;;;;;;;4.00;0.85;;;;;;;;;;5044783;28;20024;-92
2023/10/30 10:02:34;;;;;;;5.22;0.95;;;;;;;;;;5059882;28;20125;-91
2023/10/30 10:05:00;;;;;;;7.07;1.00;;;;;;;;;;5040465;28;20079;-91
2023/10/30 10:07:26;;;;;;;8.07;1.13;;;;;;;;;;5059846;28;20022;-90
2023/10/30 10:09:58;;;;;;;7.72;0.80;;;;;;;;;;5058649;28;20460;-91
2023/10/30 10:12:23;;;;;;;7.50;0.80;;;;;;;;;;5046118;28;20028;-90
2023/10/30 10:14:49;;;;;;;1.95;0.80;;;;;;;;;;5060800;28;20021;-91
2023/10/30 10:17:14;;;;;;;8.07;1.00;;;;;;;;;;5058523;28;20031;-91
2023/10/30 10:19:45;;;;;;;7.25;1.20;;;;;;;;;;5057856;28;20384;-91
2023/10/30 10:22:10;;;;;;;5.70;1.50;;;;;;;;;;5058277;28;20019;-89
2023/10/30 10:24:38;;;;;;;9.32;1.05;;;;;;;;;;5058066;28;20111;-90
2023/10/30 10:27:04;;;;;;;8.05;1.08;;;;;;;;;;5060852;28;20048;-92
2023/10/30 10:29:33;;;;;;;2.90;0.85;;;;;;;;;;5061570;28;20039;-91
2023/10/30 10:31:58;;;;;;;7.88;1.33;;;;;;;;;;5061920;28;20112;-92
2023/10/30 10:34:24;;;;;;;8.10;1.10;;;;;;;;;;5061548;28;20142;-90
2023/10/30 10:36:49;;;;;;;7.03;0.77;;;;;;;;;;5067511;28;20024;-90
2023/10/30 10:39:14;;;;;;;8.30;1.08;;;;;;;;;;5060402;28;20052;-91
2023/10/30 10:41:41;;;;;;;9.55;1.25;;;;;;;;;;5060672;28;20021;-91
2023/10/30 10:44:08;;;;;;;5.78;0.95;;;;;;;;;;5059706;28;20021;-90
2023/10/30 10:46:34;;;;;;;5.43;1.05;;;;;;;;;;5058429;28;20028;-91
2023/10/30 10:48:59;;;;;;;5.00;1.17;;;;;;;;;;5059733;28;20025;-92
2023/10/30 10:51:32;;;;;;;4.22;0.75;;;;;;;;;;5060296;28;20037;-90
2023/10/30 10:54:03;;;;;;;4.97;1.05;;;;;;;;;;5061210;28;20033;-91
2023/10/30 10:56:29;;;;;;;5.57;1.20;;;;;;;;;;5060079;28;20033;-90
2023/10/30 10:59:01;;;;;;;4.05;1.02;;;;;;;;;;5060970;28;20369;-90
2023/10/30 11:01:29;;;;;;;6.63;0.85;;;;;;;;;;5047299;28;20025;-91
2023/10/30 11:03:54;;;;;;;3.78;0.88;;;;;;;;;;5059842;28;20017;-90
2023/10/30 11:06:22;;;;;;;4.00;0.73;;;;;;;;;;5059176;28;20096;-91
2023/10/30 11:08:54;;;;;;;3.40;0.85;;;;;;;;;;5058643;28;20052;-92
2023/10/30 11:11:22;;;;;;;7.82;1.30;;;;;;;;;;5059376;28;20036;-90
2023/10/30 11:14:06;;;;;;;2.92;1.10;;;;;;;;;;5058408;28;20479;-91
2023/10/30 11:16:41;;;;;;;8.50;0.75;;;;;;;;;;5059516;28;20116;-92
2023/10/30 11:19:07;;;;;;;5.95;1.63;;;;;;;;;;5059279;28;20013;-91
2023/10/30 11:21:33;;;;;;;7.38;1.90;;;;;;;;;;5058761;28;20470;-91
2023/10/30 11:23:59;;;;;;;5.57;1.30;;;;;;;;;;5056823;28;20021;-91
2023/10/30 11:26:30;;;;;;;3.72;0.70;;;;;;;;;;5060652;28;20033;-90
2023/10/30 11:29:09;;;;;;;2.55;0.90;;;;;;;;;;5059732;28;20052;-91
2023/10/30 11:31:54;;;;;;;4.22;1.40;;;;;;;;;;5060331;28;20499;-91
2023/10/30 11:34:22;;;;;;;8.02;1.08;;;;;;;;;;5060011;28;20021;-91
2023/10/30 11:36:50;;;;;;;2.30;0.70;;;;;;;;;;5059493;28;20028;-91
2023/10/30 11:39:20;;;;;;;4.35;0.80;;;;;;;;;;5058773;28;20575;-90
2023/10/30 11:41:49;;;;;;;7.07;0.70;;;;;;;;;;5060960;28;20021;-91
2023/10/30 11:44:15;;;;;;;3.50;0.60;;;;;;;;;;5067612;28;20024;-91
2023/10/30 11:46:41;;;;;;;2.42;0.73;;;;;;;;;;5065515;28;20021;-90
2023/10/30 11:49:13;;;;;;;2.92;1.08;;;;;;;;;;5064703;28;20047;-90
2023/10/30 11:51:42;;;;;;;1.63;0.75;;;;;;;;;;5079664;28;20079;-90
2023/10/30 11:54:08;;;;;;;3.90;1.15;;;;;;;;;;5064162;28;20025;-90
2023/10/30 11:56:33;;;;;;;6.93;1.30;;;;;;;;;;5064571;28;20047;-89
2023/10/30 11:58:59;;;;;;;3.10;0.50;;;;;;;;;;5063427;28;20075;-90
2023/10/30 12:01:25;;;;;;;2.22;0.57;;;;;;;;;;5062589;28;20136;-90
2023/10/30 12:03:50;;;;;;;1.70;0.75;;;;;;;;;;5061702;28;20024;-90
2023/10/30 12:06:15;;;;;;;3.17;0.60;;;;;;;;;;5061672;28;20118;-90
2023/10/30 12:08:40;;;;;;;4.10;0.77;;;;;;;;;;5059573;28;20490;-90
2023/10/30 12:11:06;;;;;;;3.28;1.00;;;;;;;;;;5059730;28;20033;-90
2023/10/30 12:13:31;;;;;;;1.67;0.60;;;;;;;;;;5059896;28;20039;-90
2023/10/30 12:15:57;;;;;;;2.83;0.57;;;;;;;;;;5058259;28;20063;-90
2023/10/30 12:18:23;;;;;;;1.55;0.50;;;;;;;;;;5060981;28;20021;-90
2023/10/30 12:20:48;;;;;;;7.03;1.20;;;;;;;;;;5059148;28;20094;-89
2023/10/30 12:23:13;;;;;;;3.60;0.65;;;;;;;;;;5058389;28;20425;-90
2023/10/30 12:25:39;;;;;;;1.75;0.57;;;;;;;;;;5058103;28;20021;-89
2023/10/30 12:28:05;;;;;;;3.15;0.80;;;;;;;;;;5058641;28;20047;-90
2023/10/30 12:30:31;;;;;;;1.55;0.57;;;;;;;;;;5056613;28;20041;-90
2023/10/30 12:32:57;;;;;;;3.92;0.93;;;;;;;;;;5056275;28;20021;-89
2023/10/30 12:35:22;;;;;;;11.13;1.48;;;;;;;;;;5054767;28;20021;-88
2023/10/30 12:37:48;;;;;;;4.72;0.80;;;;;;;;;;5055251;28;20051;-89
2023/10/30 12:40:13;;;;;;;5.47;1.13;;;;;;;;;;5055805;28;20020;-90
2023/10/30 12:42:38;;;;;;;3.22;0.80;;;;;;;;;;5054813;28;20040;-89
2023/10/30 12:45:07;;;;;;;4.53;0.70;;;;;;;;;;5054353;28;20023;-90
2023/10/30 12:47:33;;;;;;;5.70;0.98;;;;;;;;;;5067414;28;20047;-89
2023/10/30 12:49:58;;;;;;;4.30;0.75;;;;;;;;;;5057214;28;20051;-89
2023/10/30 12:52:24;;;;;;;3.70;0.73;;;;;;;;;;5053826;28;20017;-88
2023/10/30 12:54:49;;;;;;;7.45;1.10;;;;;;;;;;5054130;28;20025;-89
2023/10/30 12:57:14;;;;;;;3.80;0.82;;;;;;;;;;5056024;28;20017;-89
2023/10/30 12:59:40;;;;;;;5.50;0.70;;;;;;;;;;5059800;28;20399;-90
2023/10/30 13:02:05;;;;;;;7.47;0.98;;;;;;;;;;5076047;28;20058;-90
2023/10/30 13:04:31;;;;;;;3.33;0.70;;;;;;;;;;5059724;28;20025;-90
2023/10/30 13:06:56;;;;;;;2.92;1.25;;;;;;;;;;5059898;28;20051;-91
2023/10/30 13:09:21;;;;;;;1.95;1.20;;;;;;;;;;5059317;28;20017;-89
2023/10/30 13:11:46;;;;;;;3.60;1.75;;;;;;;;;;5058361;28;20059;-89
2023/10/30 13:14:12;;;;;;;9.25;3.55;;;;;;;;;;5054002;28;20033;-89
2023/10/30 13:16:37;;;;;;;8.10;2.55;;;;;;;;;;5056658;28;20020;-88
2023/10/30 13:19:02;;;;;;;8.90;4.13;;;;;;;;;;5052110;28;20020;-89
2023/10/30 13:21:27;;;;;;;6.03;3.10;;;;;;;;;;5052501;28;20215;-88
2023/10/30 13:23:53;;;;;;;6.05;3.13;;;;;;;;;;5053079;28;20021;-87
2023/10/30 13:26:18;;;;;;;7.53;2.90;;;;;;;;;;5052503;28;20540;-89
2023/10/30 13:28:43;;;;;;;5.88;1.83;;;;;;;;;;5053984;28;20357;-88
2023/10/30 13:31:09;;;;;;;9.10;1.60;;;;;;;;;;5051958;28;20429;-88
2023/10/30 13:33:34;;;;;;;10.93;1.67;;;;;;;;;;5051899;28;20017;-87
2023/10/30 13:35:59;;;;;;;4.65;1.45;;;;;;;;;;5051789;28;20056;-88
2023/10/30 13:38:25;;;;;;;3.78;1.60;;;;;;;;;;5056217;28;20033;-88
2023/10/30 13:40:51;;;;;;;4.70;1.13;;;;;;;;;;5057253;28;20017;-89
2023/10/30 13:43:16;;;;;;;2.67;0.88;;;;;;;;;;5058300;28;20029;-89
2023/10/30 13:45:42;;;;;;;3.83;0.73;;;;;;;;;;5057949;28;20028;-89
2023/10/30 13:48:07;;;;;;;2.47;0.90;;;;;;;;;;5057262;28;20105;-90
2023/10/30 13:50:33;;;;;;;1.90;0.75;;;;;;;;;;5057035;28;20017;-89
2023/10/30 13:52:58;;;;;;;6.55;1.00;;;;;;;;;;5056813;28;20016;-89
2023/10/30 13:55:23;;;;;;;1.58;0.85;;;;;;;;;;5065697;28;20082;-88
2023/10/30 13:57:49;;;;;;;3.58;0.95;;;;;;;;;;5060976;28;20480;-90
2023/10/30 14:00:14;;;;;;;3.70;1.00;;;;;;;;;;5057059;28;20020;-88
2023/10/30 14:02:39;;;;;;;4.72;1.00;;;;;;;;;;5056610;28;20024;-89
2023/10/30 14:05:05;;;;;;;4.10;1.25;;;;;;;;;;5060322;28;20021;-88
2023/10/30 14:07:31;;;;;;;2.45;1.20;;;;;;;;;;5059204;28;20389;-89
2023/10/30 14:09:56;;;;;;;2.85;1.00;;;;;;;;;;5058111;28;20021;-89
2023/10/30 14:12:21;;;;;;;3.80;1.27;;;;;;;;;;5058919;28;20013;-89
2023/10/30 14:14:46;;;;;;;2.53;0.95;;;;;;;;;;5058040;28;20111;-89
2023/10/30 14:17:12;;;;;;;2.35;1.20;;;;;;;;;;5047544;28;20059;-88
2023/10/30 14:19:37;;;;;;;3.28;1.10;;;;;;;;;;5065900;28;20021;-89
2023/10/30 14:22:03;;;;;;;3.22;1.08;;;;;;;;;;5071619;28;20016;-89
2023/10/30 14:24:28;;;;;;;6.75;1.30;;;;;;;;;;5057231;28;20100;-89
2023/10/30 14:26:53;;;;;;;4.63;1.02;;;;;;;;;;5060516;28;20042;-89
2023/10/30 14:29:19;;;;;;;4.25;1.70;;;;;;;;;;5059742;28;20119;-89
2023/10/30 14:31:44;;;;;;;2.90;1.30;;;;;;;;;;5061957;28;20028;-89
2023/10/30 14:34:09;;;;;;;6.50;1.45;;;;;;;;;;5076165;28;20130;-90
2023/10/30 14:36:35;;;;;;;5.53;2.40;;;;;;;;;;5061937;28;20028;-90
2023/10/30 14:39:00;;;;;;;3.47;1.38;;;;;;;;;;5063350;28;20021;-90
2023/10/30 14:41:27;;;;;;;4.88;1.27;;;;;;;;;;5063035;28;20013;-89
2023/10/30 14:43:53;;;;;;;6.25;1.67;;;;;;;;;;5062692;28;20032;-90
2023/10/30 14:46:18;;;;;;;2.40;1.60;;;;;;;;;;5064251;28;20020;-90
2023/10/30 14:48:43;;;;;;;5.88;1.83;;;;;;;;;;5060888;28;20338;-90